Marthasville, Missouri
Current Conditions -  °F | °C
As of 4:15 AM on Saturday 25 Oct 2014 (Local Time) from KFYG Reporting Station
Haze Haze  
Wind Chill: 54°   Ceiling: 100
Heat Index: 54°   Visibility: 1mi
Dew Point: 54°   Wind: 0mph
Humidity: 100%   Direction: NA
Pressure: 29.99"   Gusts: NA
Location:  38.63°N, 91.06°W
Report Text: KFYG 250915Z AUTO 00000KT 1SM BR BKN001 OVC045 12/12 A2999 RMK AO2
Loading
Personal Weather Stations






























Interactive Weather Map New forecast layout! Learn more

10-Day Weather Forecast

Advertisements
Track Severe Weather on mobile